sensor_id;sensor_type;location;lat;lon;timestamp;P1;P2;P0
49570;PMS7003;36970;39.352;20.286;2023-07-16T00:25:16;18.00;18.00;13.00
49570;PMS7003;36970;39.352;20.286;2023-07-16T00:55:18;17.00;17.00;12.67
49570;PMS7003;36970;39.352;20.286;2023-07-16T01:25:24;13.67;13.67;9.67
49570;PMS7003;36970;39.352;20.286;2023-07-16T01:55:32;22.33;20.33;13.33
49570;PMS7003;36970;39.352;20.286;2023-07-16T02:25:34;18.00;17.00;13.00
49570;PMS7003;36970;39.352;20.286;2023-07-16T02:55:36;18.67;15.67;10.67
49570;PMS7003;36970;39.352;20.286;2023-07-16T03:25:38;18.00;15.67;12.67
49570;PMS7003;36970;39.352;20.286;2023-07-16T03:55:40;18.00;17.33;13.33
49570;PMS7003;36970;39.352;20.286;2023-07-16T04:25:42;18.00;14.33;12.00
49570;PMS7003;36970;39.352;20.286;2023-07-16T04:55:44;23.67;20.00;16.00
49570;PMS7003;36970;39.352;20.286;2023-07-16T05:25:46;19.67;19.67;14.67
49570;PMS7003;36970;39.352;20.286;2023-07-16T05:55:49;18.33;18.33;15.33
49570;PMS7003;36970;39.352;20.286;2023-07-16T06:25:54;21.33;21.33;16.33
49570;PMS7003;36970;39.352;20.286;2023-07-16T06:55:56;24.33;23.33;17.67
49570;PMS7003;36970;39.352;20.286;2023-07-16T07:25:58;30.67;28.00;18.33
49570;PMS7003;36970;39.352;20.286;2023-07-16T07:56:00;27.33;23.67;18.00
49570;PMS7003;36970;39.352;20.286;2023-07-16T08:26:02;29.33;27.67;19.67
49570;PMS7003;36970;39.352;20.286;2023-07-16T08:56:04;32.00;28.00;18.67
49570;PMS7003;36970;39.352;20.286;2023-07-16T09:26:06;31.33;28.00;20.00
49570;PMS7003;36970;39.352;20.286;2023-07-16T09:56:09;34.33;29.33;21.33
49570;PMS7003;36970;39.352;20.286;2023-07-16T10:26:13;28.00;25.00;18.67
49570;PMS7003;36970;39.352;20.286;2023-07-16T10:56:16;23.33;23.33;17.33
49570;PMS7003;36970;39.352;20.286;2023-07-16T11:26:18;26.67;23.67;17.00
49570;PMS7003;36970;39.352;20.286;2023-07-16T11:56:20;21.67;21.67;16.00
49570;PMS7003;36970;39.352;20.286;2023-07-16T12:26:22;21.00;20.00;15.00
49570;PMS7003;36970;39.352;20.286;2023-07-16T12:56:24;21.67;21.67;17.00
49570;PMS7003;36970;39.352;20.286;2023-07-16T13:26:26;24.67;23.33;16.67
49570;PMS7003;36970;39.352;20.286;2023-07-16T13:56:28;26.00;24.67;17.33
49570;PMS7003;36970;39.352;20.286;2023-07-16T14:26:30;24.67;22.00;15.67
49570;PMS7003;36970;39.352;20.286;2023-07-16T14:56:32;21.33;21.33;15.67
49570;PMS7003;36970;39.352;20.286;2023-07-16T15:26:34;23.67;22.33;16.00
49570;PMS7003;36970;39.352;20.286;2023-07-16T15:56:36;24.00;21.00;16.33
49570;PMS7003;36970;39.352;20.286;2023-07-16T16:26:38;15.67;15.67;11.00
49570;PMS7003;36970;39.352;20.286;2023-07-16T16:56:40;19.67;18.00;15.33
49570;PMS7003;36970;39.352;20.286;2023-07-16T17:26:42;21.33;21.00;15.00
49570;PMS7003;36970;39.352;20.286;2023-07-16T17:56:44;20.33;19.00;14.33
49570;PMS7003;36970;39.352;20.286;2023-07-16T18:26:46;23.33;20.33;14.33
49570;PMS7003;36970;39.352;20.286;2023-07-16T18:56:48;23.33;21.00;14.00
49570;PMS7003;36970;39.352;20.286;2023-07-16T19:26:50;17.33;17.33;12.67
49570;PMS7003;36970;39.352;20.286;2023-07-16T19:56:52;18.00;17.00;12.33
49570;PMS7003;36970;39.352;20.286;2023-07-16T20:26:54;18.33;17.33;13.00
49570;PMS7003;36970;39.352;20.286;2023-07-16T20:56:56;17.33;16.00;13.33
49570;PMS7003;36970;39.352;20.286;2023-07-16T21:26:58;13.00;13.00;9.67
49570;PMS7003;36970;39.352;20.286;2023-07-16T21:56:59;24.00;21.00;16.00
49570;PMS7003;36970;39.352;20.286;2023-07-16T22:27:02;25.00;23.00;15.00
49570;PMS7003;36970;39.352;20.286;2023-07-16T22:57:06;21.67;21.67;15.33
49570;PMS7003;36970;39.352;20.286;2023-07-16T23:27:10;18.00;17.33;14.00
49570;PMS7003;36970;39.352;20.286;2023-07-16T23:57:15;22.00;19.67;14.33
